sensor_id;sensor_type;location;lat;lon;timestamp;temperature;humidity
22779;DHT22;11556;51.194;3.800;2022-12-18T00:03:55;-3.40;99.90
22779;DHT22;11556;51.194;3.800;2022-12-18T00:06:22;-3.50;99.90
22779;DHT22;11556;51.194;3.800;2022-12-18T00:08:48;-3.60;99.90
22779;DHT22;11556;51.194;3.800;2022-12-18T00:11:16;-3.60;99.90
22779;DHT22;11556;51.194;3.800;2022-12-18T00:13:42;-3.70;99.90
22779;DHT22;11556;51.194;3.800;2022-12-18T00:16:14;-3.70;99.90
22779;DHT22;11556;51.194;3.800;2022-12-18T00:18:40;-3.80;99.90
22779;DHT22;11556;51.194;3.800;2022-12-18T00:21:08;-3.80;99.90
22779;DHT22;11556;51.194;3.800;2022-12-18T00:23:35;-3.80;99.90
22779;DHT22;11556;51.194;3.800;2022-12-18T00:26:03;-3.70;99.90
22779;DHT22;11556;51.194;3.800;2022-12-18T00:28:29;-3.70;99.90
22779;DHT22;11556;51.194;3.800;2022-12-18T00:31:06;-3.80;99.90
22779;DHT22;11556;51.194;3.800;2022-12-18T00:33:33;-3.80;99.90
22779;DHT22;11556;51.194;3.800;2022-12-18T00:36:07;-3.80;99.90
22779;DHT22;11556;51.194;3.800;2022-12-18T00:38:34;-3.80;99.90
22779;DHT22;11556;51.194;3.800;2022-12-18T00:41:00;-3.80;99.90
22779;DHT22;11556;51.194;3.800;2022-12-18T00:43:26;-3.70;99.90
22779;DHT22;11556;51.194;3.800;2022-12-18T00:45:52;-3.70;99.90
22779;DHT22;11556;51.194;3.800;2022-12-18T00:48:18;-3.60;99.90
22779;DHT22;11556;51.194;3.800;2022-12-18T00:50:43;-3.50;99.90
22779;DHT22;11556;51.194;3.800;2022-12-18T00:53:09;-3.40;99.90
22779;DHT22;11556;51.194;3.800;2022-12-18T00:55:34;-3.40;99.90
22779;DHT22;11556;51.194;3.800;2022-12-18T00:58:00;-3.40;99.90
22779;DHT22;11556;51.194;3.800;2022-12-18T01:00:25;-3.50;99.90
22779;DHT22;11556;51.194;3.800;2022-12-18T01:02:51;-3.60;99.90
22779;DHT22;11556;51.194;3.800;2022-12-18T01:05:16;-3.60;99.90
22779;DHT22;11556;51.194;3.800;2022-12-18T01:07:42;-3.60;99.90
22779;DHT22;11556;51.194;3.800;2022-12-18T01:10:09;-3.70;99.90
22779;DHT22;11556;51.194;3.800;2022-12-18T01:12:37;-3.70;99.90
22779;DHT22;11556;51.194;3.800;2022-12-18T01:15:04;-3.70;99.90
22779;DHT22;11556;51.194;3.800;2022-12-18T01:17:30;-3.70;99.90
22779;DHT22;11556;51.194;3.800;2022-12-18T01:19:55;-3.70;99.90
22779;DHT22;11556;51.194;3.800;2022-12-18T01:22:21;-3.80;99.90
22779;DHT22;11556;51.194;3.800;2022-12-18T01:24:47;-3.80;99.90
22779;DHT22;11556;51.194;3.800;2022-12-18T01:27:12;-3.80;99.90
22779;DHT22;11556;51.194;3.800;2022-12-18T01:29:38;-3.80;99.90
22779;DHT22;11556;51.194;3.800;2022-12-18T01:32:04;-3.80;99.90
22779;DHT22;11556;51.194;3.800;2022-12-18T01:34:29;-3.70;99.90
22779;DHT22;11556;51.194;3.800;2022-12-18T01:36:55;-3.60;99.90
22779;DHT22;11556;51.194;3.800;2022-12-18T01:39:20;-3.60;99.90
22779;DHT22;11556;51.194;3.800;2022-12-18T01:41:46;-3.50;99.90
22779;DHT22;11556;51.194;3.800;2022-12-18T01:47:32;-3.50;99.90
22779;DHT22;11556;51.194;3.800;2022-12-18T01:50:03;-3.50;99.90
22779;DHT22;11556;51.194;3.800;2022-12-18T01:52:31;-3.60;99.90
22779;DHT22;11556;51.194;3.800;2022-12-18T01:54:59;-3.60;99.90
22779;DHT22;11556;51.194;3.800;2022-12-18T01:57:25;-3.60;99.90
22779;DHT22;11556;51.194;3.800;2022-12-18T01:59:52;-3.60;99.90
22779;DHT22;11556;51.194;3.800;2022-12-18T02:02:20;-3.60;99.90
22779;DHT22;11556;51.194;3.800;2022-12-18T02:04:46;-3.70;99.90
22779;DHT22;11556;51.194;3.800;2022-12-18T02:09:53;-3.80;99.90
22779;DHT22;11556;51.194;3.800;2022-12-18T02:12:24;-3.80;99.90
22779;DHT22;11556;51.194;3.800;2022-12-18T02:17:50;-3.90;99.90
22779;DHT22;11556;51.194;3.800;2022-12-18T02:28:44;-4.00;99.90
22779;DHT22;11556;51.194;3.800;2022-12-18T02:31:14;-3.90;99.90
22779;DHT22;11556;51.194;3.800;2022-12-18T02:33:40;-3.80;99.90
22779;DHT22;11556;51.194;3.800;2022-12-18T02:36:07;-3.70;99.90
22779;DHT22;11556;51.194;3.800;2022-12-18T02:38:35;-3.80;99.90
22779;DHT22;11556;51.194;3.800;2022-12-18T02:41:02;-3.70;99.90
22779;DHT22;11556;51.194;3.800;2022-12-18T02:43:29;-3.70;99.90
22779;DHT22;11556;51.194;3.800;2022-12-18T02:45:59;-3.80;99.90
22779;DHT22;11556;51.194;3.800;2022-12-18T02:48:33;-3.80;99.90
22779;DHT22;11556;51.194;3.800;2022-12-18T02:54:09;-3.80;99.90
22779;DHT22;11556;51.194;3.800;2022-12-18T02:56:39;-3.80;99.90
22779;DHT22;11556;51.194;3.800;2022-12-18T02:59:17;-3.80;99.90
22779;DHT22;11556;51.194;3.800;2022-12-18T03:01:57;-3.80;99.90
22779;DHT22;11556;51.194;3.800;2022-12-18T03:04:39;-3.80;99.90
22779;DHT22;11556;51.194;3.800;2022-12-18T03:07:14;-3.80;99.90
22779;DHT22;11556;51.194;3.800;2022-12-18T03:09:43;-3.90;99.90
22779;DHT22;11556;51.194;3.800;2022-12-18T03:12:21;-3.90;99.90
22779;DHT22;11556;51.194;3.800;2022-12-18T03:14:59;-4.00;99.90
22779;DHT22;11556;51.194;3.800;2022-12-18T03:17:27;-4.00;99.90
22779;DHT22;11556;51.194;3.800;2022-12-18T03:19:56;-4.10;99.90
22779;DHT22;11556;51.194;3.800;2022-12-18T03:22:27;-4.00;99.90
22779;DHT22;11556;51.194;3.800;2022-12-18T03:24:56;-4.10;99.90
22779;DHT22;11556;51.194;3.800;2022-12-18T03:27:24;-4.10;99.90
22779;DHT22;11556;51.194;3.800;2022-12-18T03:30:02;-4.10;99.90
22779;DHT22;11556;51.194;3.800;2022-12-18T03:32:42;-4.20;99.90
22779;DHT22;11556;51.194;3.800;2022-12-18T03:35:12;-4.20;99.90
22779;DHT22;11556;51.194;3.800;2022-12-18T03:37:39;-4.20;99.90
22779;DHT22;11556;51.194;3.800;2022-12-18T03:40:05;-4.30;99.90
22779;DHT22;11556;51.194;3.800;2022-12-18T03:42:43;-4.30;99.90
22779;DHT22;11556;51.194;3.800;2022-12-18T03:45:13;-4.30;99.90
22779;DHT22;11556;51.194;3.800;2022-12-18T03:50:17;-4.20;99.90
22779;DHT22;11556;51.194;3.800;2022-12-18T03:52:57;-4.20;99.90
22779;DHT22;11556;51.194;3.800;2022-12-18T03:55:27;-4.20;99.90
22779;DHT22;11556;51.194;3.800;2022-12-18T03:57:55;-4.10;99.90
22779;DHT22;11556;51.194;3.800;2022-12-18T04:00:21;-4.10;99.90
22779;DHT22;11556;51.194;3.800;2022-12-18T04:02:50;-4.10;99.90
22779;DHT22;11556;51.194;3.800;2022-12-18T04:05:18;-4.10;99.90
22779;DHT22;11556;51.194;3.800;2022-12-18T04:07:47;-4.20;99.90
22779;DHT22;11556;51.194;3.800;2022-12-18T04:10:14;-4.10;99.90
22779;DHT22;11556;51.194;3.800;2022-12-18T04:12:40;-4.10;99.90
22779;DHT22;11556;51.194;3.800;2022-12-18T04:15:07;-4.10;99.90
22779;DHT22;11556;51.194;3.800;2022-12-18T04:17:33;-4.10;99.90
22779;DHT22;11556;51.194;3.800;2022-12-18T04:19:58;-4.10;99.90
22779;DHT22;11556;51.194;3.800;2022-12-18T04:22:24;-4.10;99.90
22779;DHT22;11556;51.194;3.800;2022-12-18T04:24:49;-4.10;99.90
22779;DHT22;11556;51.194;3.800;2022-12-18T04:27:15;-4.10;99.90
22779;DHT22;11556;51.194;3.800;2022-12-18T04:29:41;-4.10;99.90
22779;DHT22;11556;51.194;3.800;2022-12-18T04:32:07;-4.10;99.90
22779;DHT22;11556;51.194;3.800;2022-12-18T04:34:32;-4.10;99.90
22779;DHT22;11556;51.194;3.800;2022-12-18T04:36:58;-4.10;99.90
22779;DHT22;11556;51.194;3.800;2022-12-18T04:39:24;-4.10;99.90
22779;DHT22;11556;51.194;3.800;2022-12-18T04:41:49;-4.10;99.90
22779;DHT22;11556;51.194;3.800;2022-12-18T04:44:15;-4.10;99.90
22779;DHT22;11556;51.194;3.800;2022-12-18T04:46:41;-4.20;99.90
22779;DHT22;11556;51.194;3.800;2022-12-18T04:49:06;-4.10;99.90
22779;DHT22;11556;51.194;3.800;2022-12-18T04:51:32;-4.10;99.90
22779;DHT22;11556;51.194;3.800;2022-12-18T04:53:57;-4.10;99.90
22779;DHT22;11556;51.194;3.800;2022-12-18T04:56:23;-4.20;99.90
22779;DHT22;11556;51.194;3.800;2022-12-18T04:58:49;-4.20;99.90
22779;DHT22;11556;51.194;3.800;2022-12-18T05:01:17;-4.20;99.90
22779;DHT22;11556;51.194;3.800;2022-12-18T05:03:42;-4.10;99.90
22779;DHT22;11556;51.194;3.800;2022-12-18T05:06:08;-4.10;99.90
22779;DHT22;11556;51.194;3.800;2022-12-18T05:08:34;-4.20;99.90
22779;DHT22;11556;51.194;3.800;2022-12-18T05:11:01;-4.20;99.90
22779;DHT22;11556;51.194;3.800;2022-12-18T05:13:28;-4.20;99.90
22779;DHT22;11556;51.194;3.800;2022-12-18T05:15:54;-4.10;99.90
22779;DHT22;11556;51.194;3.800;2022-12-18T05:18:21;-4.10;99.90
22779;DHT22;11556;51.194;3.800;2022-12-18T05:20:47;-4.10;99.90
22779;DHT22;11556;51.194;3.800;2022-12-18T05:23:12;-4.10;99.90
22779;DHT22;11556;51.194;3.800;2022-12-18T05:25:38;-4.10;99.90
22779;DHT22;11556;51.194;3.800;2022-12-18T05:28:04;-4.10;99.90
22779;DHT22;11556;51.194;3.800;2022-12-18T05:30:29;-4.00;99.90
22779;DHT22;11556;51.194;3.800;2022-12-18T05:32:55;-4.00;99.90
22779;DHT22;11556;51.194;3.800;2022-12-18T05:35:20;-4.00;99.90
22779;DHT22;11556;51.194;3.800;2022-12-18T05:37:46;-4.00;99.90
22779;DHT22;11556;51.194;3.800;2022-12-18T05:40:12;-4.00;99.90
22779;DHT22;11556;51.194;3.800;2022-12-18T05:42:38;-4.00;99.90
22779;DHT22;11556;51.194;3.800;2022-12-18T05:45:04;-3.90;99.90
22779;DHT22;11556;51.194;3.800;2022-12-18T05:47:30;-3.90;99.90
22779;DHT22;11556;51.194;3.800;2022-12-18T05:49:55;-3.90;99.90
22779;DHT22;11556;51.194;3.800;2022-12-18T05:52:21;-3.90;99.90
22779;DHT22;11556;51.194;3.800;2022-12-18T05:54:47;-3.90;99.90
22779;DHT22;11556;51.194;3.800;2022-12-18T05:57:12;-3.90;99.90
22779;DHT22;11556;51.194;3.800;2022-12-18T05:59:38;-4.00;99.90
22779;DHT22;11556;51.194;3.800;2022-12-18T06:02:04;-3.90;99.90
22779;DHT22;11556;51.194;3.800;2022-12-18T06:04:30;-3.90;99.90
22779;DHT22;11556;51.194;3.800;2022-12-18T06:06:56;-3.90;99.90
22779;DHT22;11556;51.194;3.800;2022-12-18T06:09:21;-3.80;99.90
22779;DHT22;11556;51.194;3.800;2022-12-18T06:11:47;-3.80;99.90
22779;DHT22;11556;51.194;3.800;2022-12-18T06:14:13;-3.80;99.90
22779;DHT22;11556;51.194;3.800;2022-12-18T06:16:39;-3.80;99.90
22779;DHT22;11556;51.194;3.800;2022-12-18T06:19:05;-3.80;99.90
22779;DHT22;11556;51.194;3.800;2022-12-18T06:21:31;-3.80;99.90
22779;DHT22;11556;51.194;3.800;2022-12-18T06:23:57;-3.80;99.90
22779;DHT22;11556;51.194;3.800;2022-12-18T06:26:23;-3.70;99.90
22779;DHT22;11556;51.194;3.800;2022-12-18T06:28:49;-3.70;99.90
22779;DHT22;11556;51.194;3.800;2022-12-18T06:31:15;-3.70;99.90
22779;DHT22;11556;51.194;3.800;2022-12-18T06:33:41;-3.80;99.90
22779;DHT22;11556;51.194;3.800;2022-12-18T06:36:11;-3.80;99.90
22779;DHT22;11556;51.194;3.800;2022-12-18T06:38:39;-3.90;99.90
22779;DHT22;11556;51.194;3.800;2022-12-18T06:41:19;-3.90;99.90
22779;DHT22;11556;51.194;3.800;2022-12-18T06:43:45;-3.90;99.90
22779;DHT22;11556;51.194;3.800;2022-12-18T06:46:11;-3.90;99.90
22779;DHT22;11556;51.194;3.800;2022-12-18T06:48:38;-3.80;99.90
22779;DHT22;11556;51.194;3.800;2022-12-18T06:51:04;-3.80;99.90
22779;DHT22;11556;51.194;3.800;2022-12-18T06:53:29;-3.80;99.90
22779;DHT22;11556;51.194;3.800;2022-12-18T06:56:02;-3.80;99.90
22779;DHT22;11556;51.194;3.800;2022-12-18T06:58:28;-3.80;99.90
22779;DHT22;11556;51.194;3.800;2022-12-18T07:01:02;-3.80;99.90
22779;DHT22;11556;51.194;3.800;2022-12-18T07:03:28;-3.80;99.90
22779;DHT22;11556;51.194;3.800;2022-12-18T07:05:54;-3.80;99.90
22779;DHT22;11556;51.194;3.800;2022-12-18T07:08:20;-3.70;99.90
22779;DHT22;11556;51.194;3.800;2022-12-18T07:10:45;-3.70;99.90
22779;DHT22;11556;51.194;3.800;2022-12-18T07:13:11;-3.70;99.90
22779;DHT22;11556;51.194;3.800;2022-12-18T07:15:36;-3.70;99.90
22779;DHT22;11556;51.194;3.800;2022-12-18T07:18:02;-3.70;99.90
22779;DHT22;11556;51.194;3.800;2022-12-18T07:20:28;-3.70;99.90
22779;DHT22;11556;51.194;3.800;2022-12-18T07:22:54;-3.70;99.90
22779;DHT22;11556;51.194;3.800;2022-12-18T07:25:19;-3.70;99.90
22779;DHT22;11556;51.194;3.800;2022-12-18T07:27:45;-3.70;99.90
22779;DHT22;11556;51.194;3.800;2022-12-18T07:30:11;-3.80;99.90
22779;DHT22;11556;51.194;3.800;2022-12-18T07:32:36;-3.70;99.90
22779;DHT22;11556;51.194;3.800;2022-12-18T07:35:02;-3.70;99.90
22779;DHT22;11556;51.194;3.800;2022-12-18T07:37:28;-3.70;99.90
22779;DHT22;11556;51.194;3.800;2022-12-18T07:39:53;-3.70;99.90
22779;DHT22;11556;51.194;3.800;2022-12-18T07:42:19;-3.70;99.90
22779;DHT22;11556;51.194;3.800;2022-12-18T07:44:58;-3.60;99.90
22779;DHT22;11556;51.194;3.800;2022-12-18T07:47:23;-3.60;99.90
22779;DHT22;11556;51.194;3.800;2022-12-18T07:49:49;-3.60;99.90
22779;DHT22;11556;51.194;3.800;2022-12-18T07:52:15;-3.60;99.90
22779;DHT22;11556;51.194;3.800;2022-12-18T07:54:40;-3.50;99.90
22779;DHT22;11556;51.194;3.800;2022-12-18T07:57:07;-3.50;99.90
22779;DHT22;11556;51.194;3.800;2022-12-18T07:59:32;-3.40;99.90
22779;DHT22;11556;51.194;3.800;2022-12-18T08:01:58;-3.40;99.90
22779;DHT22;11556;51.194;3.800;2022-12-18T08:04:24;-3.40;99.90
22779;DHT22;11556;51.194;3.800;2022-12-18T08:06:50;-3.40;99.90
22779;DHT22;11556;51.194;3.800;2022-12-18T08:09:16;-3.30;99.90
22779;DHT22;11556;51.194;3.800;2022-12-18T08:11:42;-3.30;99.90
22779;DHT22;11556;51.194;3.800;2022-12-18T08:14:08;-3.20;99.90
22779;DHT22;11556;51.194;3.800;2022-12-18T08:16:34;-3.10;99.90
22779;DHT22;11556;51.194;3.800;2022-12-18T08:18:59;-2.90;99.90
22779;DHT22;11556;51.194;3.800;2022-12-18T08:21:27;-2.90;99.90
22779;DHT22;11556;51.194;3.800;2022-12-18T08:23:55;-2.80;99.90
22779;DHT22;11556;51.194;3.800;2022-12-18T08:26:21;-2.60;99.90
22779;DHT22;11556;51.194;3.800;2022-12-18T08:28:48;-2.60;99.90
22779;DHT22;11556;51.194;3.800;2022-12-18T08:31:14;-2.50;99.90
22779;DHT22;11556;51.194;3.800;2022-12-18T08:33:41;-2.50;99.90
22779;DHT22;11556;51.194;3.800;2022-12-18T08:36:07;-2.60;99.90
22779;DHT22;11556;51.194;3.800;2022-12-18T08:38:33;-2.60;99.90
22779;DHT22;11556;51.194;3.800;2022-12-18T08:41:00;-2.50;99.90
22779;DHT22;11556;51.194;3.800;2022-12-18T08:43:26;-2.50;99.90
22779;DHT22;11556;51.194;3.800;2022-12-18T08:46:11;-2.50;99.90
22779;DHT22;11556;51.194;3.800;2022-12-18T08:48:36;-2.40;99.90
22779;DHT22;11556;51.194;3.800;2022-12-18T08:51:02;-2.40;99.90
22779;DHT22;11556;51.194;3.800;2022-12-18T08:53:28;-2.30;99.90
22779;DHT22;11556;51.194;3.800;2022-12-18T08:55:53;-2.20;99.90
22779;DHT22;11556;51.194;3.800;2022-12-18T08:58:21;-2.10;99.90
22779;DHT22;11556;51.194;3.800;2022-12-18T09:00:47;-2.00;99.90
22779;DHT22;11556;51.194;3.800;2022-12-18T09:03:16;-1.90;99.90
22779;DHT22;11556;51.194;3.800;2022-12-18T09:05:43;-1.90;99.90
22779;DHT22;11556;51.194;3.800;2022-12-18T09:08:10;-1.90;99.90
22779;DHT22;11556;51.194;3.800;2022-12-18T09:10:47;-1.90;99.90
22779;DHT22;11556;51.194;3.800;2022-12-18T09:13:13;-1.90;99.90
22779;DHT22;11556;51.194;3.800;2022-12-18T09:15:44;-1.90;99.90
22779;DHT22;11556;51.194;3.800;2022-12-18T09:18:11;-1.80;99.90
22779;DHT22;11556;51.194;3.800;2022-12-18T09:20:37;-1.80;99.90
22779;DHT22;11556;51.194;3.800;2022-12-18T09:23:04;-1.80;99.90
22779;DHT22;11556;51.194;3.800;2022-12-18T09:25:31;-1.80;99.90
22779;DHT22;11556;51.194;3.800;2022-12-18T09:28:02;-1.80;99.90
22779;DHT22;11556;51.194;3.800;2022-12-18T09:30:28;-1.70;99.90
22779;DHT22;11556;51.194;3.800;2022-12-18T09:32:54;-1.80;99.90
22779;DHT22;11556;51.194;3.800;2022-12-18T09:35:20;-1.80;99.90
22779;DHT22;11556;51.194;3.800;2022-12-18T09:37:45;-1.80;99.90
22779;DHT22;11556;51.194;3.800;2022-12-18T09:40:19;-1.70;99.90
22779;DHT22;11556;51.194;3.800;2022-12-18T09:42:50;-1.60;99.90
22779;DHT22;11556;51.194;3.800;2022-12-18T09:45:18;-1.60;99.90
22779;DHT22;11556;51.194;3.800;2022-12-18T09:47:45;-1.50;99.90
22779;DHT22;11556;51.194;3.800;2022-12-18T09:50:33;-1.50;99.90
22779;DHT22;11556;51.194;3.800;2022-12-18T09:53:12;-1.50;99.90
22779;DHT22;11556;51.194;3.800;2022-12-18T09:55:43;-1.60;99.90
22779;DHT22;11556;51.194;3.800;2022-12-18T10:00:35;-1.50;99.90
22779;DHT22;11556;51.194;3.800;2022-12-18T10:03:09;-1.50;99.90
22779;DHT22;11556;51.194;3.800;2022-12-18T10:10:54;-1.50;99.90
22779;DHT22;11556;51.194;3.800;2022-12-18T10:13:33;-1.50;99.90
22779;DHT22;11556;51.194;3.800;2022-12-18T10:16:13;-1.60;99.90
22779;DHT22;11556;51.194;3.800;2022-12-18T10:18:50;-1.60;99.90
22779;DHT22;11556;51.194;3.800;2022-12-18T10:21:32;-1.50;99.90
22779;DHT22;11556;51.194;3.800;2022-12-18T10:26:34;-1.50;99.90
22779;DHT22;11556;51.194;3.800;2022-12-18T10:29:00;-1.50;99.90
22779;DHT22;11556;51.194;3.800;2022-12-18T10:31:26;-1.40;99.90
22779;DHT22;11556;51.194;3.800;2022-12-18T10:33:55;-1.40;99.90
22779;DHT22;11556;51.194;3.800;2022-12-18T10:36:22;-1.40;99.90
22779;DHT22;11556;51.194;3.800;2022-12-18T10:38:48;-1.30;99.90
22779;DHT22;11556;51.194;3.800;2022-12-18T10:44:12;-1.20;99.90
22779;DHT22;11556;51.194;3.800;2022-12-18T10:46:38;-1.10;99.90
22779;DHT22;11556;51.194;3.800;2022-12-18T10:49:04;-1.10;99.90
22779;DHT22;11556;51.194;3.800;2022-12-18T10:51:31;-1.00;99.90
22779;DHT22;11556;51.194;3.800;2022-12-18T10:54:23;-1.10;99.90
22779;DHT22;11556;51.194;3.800;2022-12-18T10:56:49;-1.10;99.90
22779;DHT22;11556;51.194;3.800;2022-12-18T10:59:16;-1.00;99.90
22779;DHT22;11556;51.194;3.800;2022-12-18T11:04:31;-1.10;99.90
22779;DHT22;11556;51.194;3.800;2022-12-18T11:06:58;-1.20;99.90
22779;DHT22;11556;51.194;3.800;2022-12-18T11:09:29;-1.10;99.90
22779;DHT22;11556;51.194;3.800;2022-12-18T11:11:58;-1.20;99.90
22779;DHT22;11556;51.194;3.800;2022-12-18T11:14:25;-1.10;99.90
22779;DHT22;11556;51.194;3.800;2022-12-18T11:16:53;-1.00;99.90
22779;DHT22;11556;51.194;3.800;2022-12-18T11:21:46;-0.90;99.90
22779;DHT22;11556;51.194;3.800;2022-12-18T11:24:20;-0.90;99.90
22779;DHT22;11556;51.194;3.800;2022-12-18T11:26:46;-0.90;99.90
22779;DHT22;11556;51.194;3.800;2022-12-18T11:29:31;-0.80;99.90
22779;DHT22;11556;51.194;3.800;2022-12-18T11:34:49;-0.60;99.90
22779;DHT22;11556;51.194;3.800;2022-12-18T11:37:17;-0.50;99.90
22779;DHT22;11556;51.194;3.800;2022-12-18T11:40:01;-0.60;99.90
22779;DHT22;11556;51.194;3.800;2022-12-18T11:42:38;-0.70;99.90
22779;DHT22;11556;51.194;3.800;2022-12-18T11:47:59;-0.60;99.90
22779;DHT22;11556;51.194;3.800;2022-12-18T11:53:02;-0.40;99.90
22779;DHT22;11556;51.194;3.800;2022-12-18T11:55:47;-0.30;99.90
22779;DHT22;11556;51.194;3.800;2022-12-18T12:07:35;-0.30;99.90
22779;DHT22;11556;51.194;3.800;2022-12-18T12:15:50;-0.30;99.90
22779;DHT22;11556;51.194;3.800;2022-12-18T12:19:22;-0.30;99.90
22779;DHT22;11556;51.194;3.800;2022-12-18T12:27:08;-0.10;99.90
22779;DHT22;11556;51.194;3.800;2022-12-18T12:30:03;-0.10;99.90
22779;DHT22;11556;51.194;3.800;2022-12-18T12:33:07;-0.10;99.90
22779;DHT22;11556;51.194;3.800;2022-12-18T12:36:02;0.00;99.90
22779;DHT22;11556;51.194;3.800;2022-12-18T12:38:41;0.10;99.90
22779;DHT22;11556;51.194;3.800;2022-12-18T12:41:14;0.10;99.90
22779;DHT22;11556;51.194;3.800;2022-12-18T12:44:04;0.10;99.90
22779;DHT22;11556;51.194;3.800;2022-12-18T12:46:34;0.00;99.90
22779;DHT22;11556;51.194;3.800;2022-12-18T12:49:03;0.10;99.90
22779;DHT22;11556;51.194;3.800;2022-12-18T12:51:38;0.10;99.90
22779;DHT22;11556;51.194;3.800;2022-12-18T12:54:15;0.10;99.90
22779;DHT22;11556;51.194;3.800;2022-12-18T13:04:42;0.00;99.90
22779;DHT22;11556;51.194;3.800;2022-12-18T13:07:26;0.10;99.90
22779;DHT22;11556;51.194;3.800;2022-12-18T13:12:55;0.10;99.90
22779;DHT22;11556;51.194;3.800;2022-12-18T13:15:42;0.20;99.90
22779;DHT22;11556;51.194;3.800;2022-12-18T13:20:48;0.20;99.90
22779;DHT22;11556;51.194;3.800;2022-12-18T13:25:57;0.20;99.90
22779;DHT22;11556;51.194;3.800;2022-12-18T13:31:12;0.40;99.90
22779;DHT22;11556;51.194;3.800;2022-12-18T13:33:43;0.40;99.90
22779;DHT22;11556;51.194;3.800;2022-12-18T13:36:29;0.60;99.90
22779;DHT22;11556;51.194;3.800;2022-12-18T13:41:39;0.60;99.90
22779;DHT22;11556;51.194;3.800;2022-12-18T13:46:50;0.90;99.90
22779;DHT22;11556;51.194;3.800;2022-12-18T13:52:03;1.00;99.90
22779;DHT22;11556;51.194;3.800;2022-12-18T13:54:41;0.90;99.90
22779;DHT22;11556;51.194;3.800;2022-12-18T13:57:34;0.90;99.90
22779;DHT22;11556;51.194;3.800;2022-12-18T14:00:24;1.10;99.90
22779;DHT22;11556;51.194;3.800;2022-12-18T14:02:50;1.00;99.90
22779;DHT22;11556;51.194;3.800;2022-12-18T14:08:03;1.00;99.90
22779;DHT22;11556;51.194;3.800;2022-12-18T14:10:30;1.00;99.90
22779;DHT22;11556;51.194;3.800;2022-12-18T14:12:57;0.90;99.90
22779;DHT22;11556;51.194;3.800;2022-12-18T14:15:33;0.90;99.90
22779;DHT22;11556;51.194;3.800;2022-12-18T14:20:44;0.80;99.90
22779;DHT22;11556;51.194;3.800;2022-12-18T14:23:45;0.80;99.90
22779;DHT22;11556;51.194;3.800;2022-12-18T14:28:47;0.70;99.90
22779;DHT22;11556;51.194;3.800;2022-12-18T14:31:20;0.60;99.90
22779;DHT22;11556;51.194;3.800;2022-12-18T14:33:47;0.60;99.90
22779;DHT22;11556;51.194;3.800;2022-12-18T14:36:16;0.60;99.90
22779;DHT22;11556;51.194;3.800;2022-12-18T14:38:42;0.60;99.90
22779;DHT22;11556;51.194;3.800;2022-12-18T14:41:13;0.70;99.90
22779;DHT22;11556;51.194;3.800;2022-12-18T14:43:42;0.70;99.90
22779;DHT22;11556;51.194;3.800;2022-12-18T14:48:59;0.60;99.90
22779;DHT22;11556;51.194;3.800;2022-12-18T14:51:27;0.70;99.90
22779;DHT22;11556;51.194;3.800;2022-12-18T14:56:31;0.70;99.90
22779;DHT22;11556;51.194;3.800;2022-12-18T14:59:05;0.60;99.90
22779;DHT22;11556;51.194;3.800;2022-12-18T15:01:44;0.70;99.90
22779;DHT22;11556;51.194;3.800;2022-12-18T15:07:13;0.70;99.90
22779;DHT22;11556;51.194;3.800;2022-12-18T15:09:41;0.70;99.90
22779;DHT22;11556;51.194;3.800;2022-12-18T15:13:16;0.70;99.90
22779;DHT22;11556;51.194;3.800;2022-12-18T15:20:28;0.80;99.90
22779;DHT22;11556;51.194;3.800;2022-12-18T15:22:56;0.70;99.90
22779;DHT22;11556;51.194;3.800;2022-12-18T15:25:31;0.70;99.90
22779;DHT22;11556;51.194;3.800;2022-12-18T15:27:57;0.70;99.90
22779;DHT22;11556;51.194;3.800;2022-12-18T15:30:24;0.70;99.90
22779;DHT22;11556;51.194;3.800;2022-12-18T15:32:51;0.80;99.90
22779;DHT22;11556;51.194;3.800;2022-12-18T15:35:18;0.80;99.90
22779;DHT22;11556;51.194;3.800;2022-12-18T15:37:45;0.80;99.90
22779;DHT22;11556;51.194;3.800;2022-12-18T15:40:22;0.80;99.90
22779;DHT22;11556;51.194;3.800;2022-12-18T15:42:49;0.80;99.90
22779;DHT22;11556;51.194;3.800;2022-12-18T15:45:35;0.80;99.90
22779;DHT22;11556;51.194;3.800;2022-12-18T15:48:00;0.70;99.90
22779;DHT22;11556;51.194;3.800;2022-12-18T15:50:26;0.80;99.90
22779;DHT22;11556;51.194;3.800;2022-12-18T15:52:53;0.80;99.90
22779;DHT22;11556;51.194;3.800;2022-12-18T15:55:22;0.80;99.90
22779;DHT22;11556;51.194;3.800;2022-12-18T15:58:07;0.80;99.90
22779;DHT22;11556;51.194;3.800;2022-12-18T16:00:35;0.90;99.90
22779;DHT22;11556;51.194;3.800;2022-12-18T16:03:02;0.90;99.90
22779;DHT22;11556;51.194;3.800;2022-12-18T16:05:28;0.90;99.90
22779;DHT22;11556;51.194;3.800;2022-12-18T16:07:54;0.90;99.90
22779;DHT22;11556;51.194;3.800;2022-12-18T16:10:20;0.90;99.90
22779;DHT22;11556;51.194;3.800;2022-12-18T16:12:46;1.00;99.90
22779;DHT22;11556;51.194;3.800;2022-12-18T16:15:13;1.00;99.90
22779;DHT22;11556;51.194;3.800;2022-12-18T16:17:41;1.00;99.90
22779;DHT22;11556;51.194;3.800;2022-12-18T16:20:16;1.00;99.90
22779;DHT22;11556;51.194;3.800;2022-12-18T16:22:43;1.00;99.90
22779;DHT22;11556;51.194;3.800;2022-12-18T16:25:23;1.00;99.90
22779;DHT22;11556;51.194;3.800;2022-12-18T16:27:50;1.10;99.90
22779;DHT22;11556;51.194;3.800;2022-12-18T16:30:19;1.10;99.90
22779;DHT22;11556;51.194;3.800;2022-12-18T16:32:45;1.10;99.90
22779;DHT22;11556;51.194;3.800;2022-12-18T16:35:12;1.10;99.90
22779;DHT22;11556;51.194;3.800;2022-12-18T16:37:39;1.10;99.90
22779;DHT22;11556;51.194;3.800;2022-12-18T16:40:07;1.10;99.90
22779;DHT22;11556;51.194;3.800;2022-12-18T16:42:37;1.10;99.90
22779;DHT22;11556;51.194;3.800;2022-12-18T16:45:04;1.10;99.90
22779;DHT22;11556;51.194;3.800;2022-12-18T16:47:30;1.20;99.90
22779;DHT22;11556;51.194;3.800;2022-12-18T16:49:56;1.20;99.90
22779;DHT22;11556;51.194;3.800;2022-12-18T16:52:21;1.20;99.90
22779;DHT22;11556;51.194;3.800;2022-12-18T16:54:47;1.10;99.90
22779;DHT22;11556;51.194;3.800;2022-12-18T16:57:15;1.10;99.90
22779;DHT22;11556;51.194;3.800;2022-12-18T16:59:41;1.10;99.90
22779;DHT22;11556;51.194;3.800;2022-12-18T17:02:20;1.10;99.90
22779;DHT22;11556;51.194;3.800;2022-12-18T17:04:46;1.10;99.90
22779;DHT22;11556;51.194;3.800;2022-12-18T17:07:12;1.10;99.90
22779;DHT22;11556;51.194;3.800;2022-12-18T17:09:38;1.00;99.90
22779;DHT22;11556;51.194;3.800;2022-12-18T17:12:04;1.00;99.90
22779;DHT22;11556;51.194;3.800;2022-12-18T17:14:31;1.00;99.90
22779;DHT22;11556;51.194;3.800;2022-12-18T17:16:57;0.90;99.90
22779;DHT22;11556;51.194;3.800;2022-12-18T17:19:25;0.90;99.90
22779;DHT22;11556;51.194;3.800;2022-12-18T17:21:51;0.90;99.90
22779;DHT22;11556;51.194;3.800;2022-12-18T17:24:17;0.90;99.90
22779;DHT22;11556;51.194;3.800;2022-12-18T17:26:43;0.90;99.90
22779;DHT22;11556;51.194;3.800;2022-12-18T17:29:14;1.00;99.90
22779;DHT22;11556;51.194;3.800;2022-12-18T17:31:40;0.90;99.90
22779;DHT22;11556;51.194;3.800;2022-12-18T17:34:05;1.00;99.90
22779;DHT22;11556;51.194;3.800;2022-12-18T17:36:31;1.10;99.90
22779;DHT22;11556;51.194;3.800;2022-12-18T17:38:59;1.10;99.90
22779;DHT22;11556;51.194;3.800;2022-12-18T17:41:26;1.10;99.90
22779;DHT22;11556;51.194;3.800;2022-12-18T17:44:00;1.20;99.90
22779;DHT22;11556;51.194;3.800;2022-12-18T17:46:28;1.30;99.90
22779;DHT22;11556;51.194;3.800;2022-12-18T17:48:55;1.30;99.90